createdAt,value
2018-11-23T00:01:25.721Z,74.13
2018-11-23T00:03:53.780Z,73.92
2018-11-23T00:06:22.310Z,73.39
2018-11-23T00:08:51.974Z,73.42
2018-11-23T00:11:19.989Z,73.10
2018-11-23T00:13:48.008Z,73.48
2018-11-23T00:16:16.016Z,74.00
2018-11-23T00:18:44.056Z,73.55
2018-11-23T00:21:12.111Z,73.84
2018-11-23T00:23:40.184Z,73.83
2018-11-23T00:26:08.241Z,73.53
2018-11-23T00:28:36.258Z,73.54
2018-11-23T00:31:04.664Z,73.03
2018-11-23T00:33:32.678Z,73.21
2018-11-23T00:36:00.734Z,73.34
2018-11-23T00:38:28.735Z,73.31
2018-11-23T00:40:56.804Z,72.94
2018-11-23T00:43:24.896Z,73.27
2018-11-23T00:45:52.928Z,73.27
2018-11-23T00:48:20.973Z,73.24
2018-11-23T00:50:49.025Z,73.48
2018-11-23T00:53:17.127Z,73.69
2018-11-23T00:55:45.209Z,73.72
2018-11-23T00:58:13.328Z,73.90
2018-11-23T01:00:41.334Z,73.78
2018-11-23T01:03:09.421Z,74.23
2018-11-23T01:05:37.412Z,73.74
2018-11-23T01:08:05.465Z,74.04
2018-11-23T01:10:33.549Z,73.74
2018-11-23T01:13:01.658Z,73.93
2018-11-23T01:15:29.634Z,73.42
2018-11-23T01:17:57.693Z,73.75
2018-11-23T01:20:26.577Z,73.02
2018-11-23T01:22:56.253Z,72.80
2018-11-23T01:25:25.089Z,73.31
2018-11-23T01:27:53.790Z,73.96
2018-11-23T01:30:30.754Z,73.88
2018-11-23T01:32:59.600Z,73.81
2018-11-23T01:35:27.718Z,73.76
2018-11-23T01:37:56.142Z,73.55
2018-11-23T01:40:25.442Z,73.47
2018-11-23T01:42:53.790Z,73.46
2018-11-23T01:45:21.834Z,73.57
2018-11-23T01:47:49.873Z,73.55
2018-11-23T01:50:32.475Z,73.46
2018-11-23T01:53:00.653Z,73.22
2018-11-23T01:55:28.623Z,73.55
2018-11-23T01:57:56.706Z,73.56
2018-11-23T02:00:27.033Z,73.37
2018-11-23T02:02:55.654Z,73.18
2018-11-23T02:05:23.708Z,73.71
2018-11-23T02:07:51.745Z,73.67
2018-11-23T02:10:20.208Z,74.16
2018-11-23T02:12:48.229Z,75.25
2018-11-23T02:15:18.894Z,74.27
2018-11-23T02:17:47.371Z,73.54
2018-11-23T02:20:16.707Z,74.15
2018-11-23T02:22:44.734Z,73.76
2018-11-23T02:25:12.750Z,73.56
2018-11-23T02:27:40.822Z,73.95
2018-11-23T02:30:17.421Z,73.96
2018-11-23T02:32:45.525Z,73.66
2018-11-23T02:35:15.151Z,73.70
2018-11-23T02:37:43.159Z,74.11
2018-11-23T02:40:12.517Z,74.19
2018-11-23T02:42:40.698Z,74.22
2018-11-23T02:45:14.146Z,74.14
2018-11-23T02:47:43.135Z,73.81
2018-11-23T02:50:11.151Z,74.15
2018-11-23T02:52:40.301Z,73.62
2018-11-23T02:55:09.058Z,74.14
2018-11-23T02:57:37.085Z,75.08
2018-11-23T03:00:06.194Z,74.94
2018-11-23T03:02:34.242Z,74.27
2018-11-23T03:05:02.258Z,73.67
2018-11-23T03:07:30.295Z,73.82
2018-11-23T03:09:58.323Z,74.20
2018-11-23T03:12:26.339Z,74.13
2018-11-23T03:14:54.467Z,73.75
2018-11-23T03:17:22.499Z,74.27
2018-11-23T03:19:50.591Z,74.62
2018-11-23T03:22:18.581Z,74.08
2018-11-23T03:24:46.652Z,73.99
2018-11-23T03:27:14.752Z,74.08
2018-11-23T03:29:42.742Z,74.32
2018-11-23T03:32:10.758Z,73.84
2018-11-23T03:34:38.877Z,73.73
2018-11-23T03:37:06.938Z,74.43
2018-11-23T03:39:34.881Z,74.06
2018-11-23T03:42:02.998Z,74.20
2018-11-23T03:44:31.041Z,74.56
2018-11-23T03:46:59.113Z,74.33
2018-11-23T03:49:27.206Z,74.11
2018-11-23T03:51:55.210Z,74.61
2018-11-23T03:54:24.166Z,74.04
2018-11-23T03:56:52.213Z,76.64
2018-11-23T03:59:20.295Z,75.94
2018-11-23T04:01:48.346Z,75.06
2018-11-23T04:04:16.350Z,80.37
2018-11-23T04:06:44.444Z,76.37
2018-11-23T04:09:12.481Z,76.65
2018-11-23T04:11:40.557Z,76.46
2018-11-23T04:14:08.579Z,78.74
2018-11-23T04:16:36.624Z,76.49
2018-11-23T04:19:04.725Z,77.08
2018-11-23T04:21:32.794Z,79.29
2018-11-23T04:24:00.826Z,77.01
2018-11-23T04:26:28.897Z,76.15
2018-11-23T04:28:56.915Z,77.73
2018-11-23T04:31:24.969Z,76.91
2018-11-23T04:33:53.501Z,76.44
2018-11-23T04:36:22.662Z,77.90
2018-11-23T04:38:50.701Z,77.77
2018-11-23T04:41:18.744Z,78.17
2018-11-23T04:43:46.858Z,79.24
2018-11-23T04:46:14.827Z,80.43
2018-11-23T04:48:42.855Z,77.53
2018-11-23T04:51:10.898Z,80.25
2018-11-23T04:53:38.898Z,80.13
2018-11-23T04:56:06.923Z,80.63
2018-11-23T04:58:34.949Z,80.07
2018-11-23T05:01:03.022Z,79.46
2018-11-23T05:03:31.035Z,79.35
2018-11-23T05:05:59.022Z,81.81
2018-11-23T05:08:27.077Z,79.88
2018-11-23T05:10:55.463Z,82.74
2018-11-23T05:13:23.500Z,81.34
2018-11-23T05:15:51.582Z,80.67
2018-11-23T05:18:19.658Z,81.57
2018-11-23T05:20:47.714Z,82.33
2018-11-23T05:23:15.755Z,80.46
2018-11-23T05:25:43.791Z,79.94
2018-11-23T05:28:11.857Z,81.50
2018-11-23T05:30:39.961Z,79.31
2018-11-23T05:33:07.974Z,81.08
2018-11-23T05:35:36.023Z,79.03
2018-11-23T05:38:04.061Z,81.51
2018-11-23T05:40:32.077Z,79.34
2018-11-23T05:43:04.289Z,80.06
2018-11-23T05:45:28.236Z,79.59
2018-11-23T05:47:56.268Z,80.59
2018-11-23T05:50:25.278Z,79.79
2018-11-23T05:52:53.445Z,79.08
2018-11-23T05:55:21.540Z,78.76
2018-11-23T05:57:50.672Z,80.17
2018-11-23T06:00:26.689Z,78.71
2018-11-23T06:02:54.732Z,80.25
2018-11-23T06:05:22.818Z,80.48
2018-11-23T06:07:51.894Z,78.24
2018-11-23T06:10:20.722Z,77.80
2018-11-23T06:12:48.711Z,79.35
2018-11-23T06:15:19.183Z,78.70
2018-11-23T06:17:47.825Z,80.01
2018-11-23T06:20:17.735Z,78.41
2018-11-23T06:22:46.625Z,78.48
2018-11-23T06:25:15.954Z,78.22
2018-11-23T06:27:44.014Z,80.41
2018-11-23T06:30:12.942Z,79.89
2018-11-23T06:32:46.671Z,80.23
2018-11-23T06:35:14.701Z,81.62
2018-11-23T06:37:42.659Z,81.73
2018-11-23T06:40:11.143Z,80.73
2018-11-23T06:42:42.263Z,80.43
2018-11-23T06:45:07.502Z,80.81
2018-11-23T06:47:35.758Z,80.22
2018-11-23T06:50:03.856Z,80.10
2018-11-23T06:52:31.881Z,79.69
2018-11-23T06:55:00.015Z,81.01
2018-11-23T06:57:28.059Z,81.34
2018-11-23T06:59:56.060Z,80.16
2018-11-23T07:02:24.079Z,80.19
2018-11-23T07:04:52.156Z,80.75
2018-11-23T07:07:20.161Z,79.24
2018-11-23T07:09:49.124Z,79.99
2018-11-23T07:12:17.151Z,79.98
2018-11-23T07:14:45.211Z,81.13
2018-11-23T07:17:13.291Z,80.55
2018-11-23T07:19:41.298Z,80.27
2018-11-23T07:22:09.321Z,82.50
2018-11-23T07:24:37.397Z,80.27
2018-11-23T07:27:05.437Z,82.61
2018-11-23T07:29:33.498Z,81.91
2018-11-23T07:32:01.475Z,80.81
2018-11-23T07:34:30.570Z,81.14
2018-11-23T07:36:58.597Z,80.99
2018-11-23T07:39:32.347Z,80.32
2018-11-23T07:42:24.747Z,81.54
2018-11-23T07:44:52.865Z,79.50
2018-11-23T07:47:20.911Z,80.05
2018-11-23T07:49:50.315Z,79.00
2018-11-23T07:52:18.548Z,79.91
2018-11-23T07:54:46.614Z,79.72
2018-11-23T07:57:14.729Z,80.08
2018-11-23T07:59:42.752Z,79.17
2018-11-23T08:02:11.917Z,81.25
2018-11-23T08:04:40.825Z,81.18
2018-11-23T08:07:10.098Z,81.04
2018-11-23T08:09:39.165Z,79.72
2018-11-23T08:12:08.846Z,79.98
2018-11-23T08:14:36.989Z,80.79
2018-11-23T08:17:05.231Z,81.18
2018-11-23T08:19:33.266Z,79.08
2018-11-23T08:22:01.326Z,79.84
2018-11-23T08:24:35.962Z,79.13
2018-11-23T08:27:03.971Z,78.81
2018-11-23T08:29:32.007Z,79.42
2018-11-23T08:32:00.048Z,79.40
2018-11-23T08:34:28.089Z,80.84
2018-11-23T08:36:56.098Z,81.02
2018-11-23T08:39:24.211Z,79.00
2018-11-23T08:41:52.242Z,80.54
2018-11-23T08:44:20.379Z,79.71
2018-11-23T08:46:48.469Z,78.86
2018-11-23T08:49:16.594Z,80.75
2018-11-23T08:51:44.716Z,79.76
2018-11-23T08:54:12.726Z,79.70
2018-11-23T08:56:40.754Z,80.51
2018-11-23T08:59:08.821Z,80.06
2018-11-23T09:01:36.837Z,81.73
2018-11-23T09:04:05.134Z,81.04
2018-11-23T09:06:33.218Z,79.88
2018-11-23T09:09:01.198Z,80.89
2018-11-23T09:11:29.203Z,80.10
2018-11-23T09:13:57.241Z,79.90
2018-11-23T09:16:25.278Z,80.61
2018-11-23T09:18:53.306Z,80.11
2018-11-23T09:21:21.397Z,79.64
2018-11-23T09:23:49.483Z,80.56
2018-11-23T09:26:17.485Z,81.00
2018-11-23T09:28:45.476Z,80.69
2018-11-23T09:31:13.532Z,79.40
2018-11-23T09:33:41.610Z,79.29
2018-11-23T09:36:09.604Z,79.54
2018-11-23T09:38:37.629Z,78.97
2018-11-23T09:41:05.717Z,79.51
2018-11-23T09:43:34.750Z,79.42
2018-11-23T09:46:02.799Z,78.42
2018-11-23T09:48:30.834Z,78.65
2018-11-23T09:50:58.872Z,79.78
2018-11-23T09:53:26.909Z,79.77
2018-11-23T09:55:55.022Z,79.34
2018-11-23T09:58:23.028Z,79.59
2018-11-23T10:00:51.087Z,79.62
2018-11-23T10:03:19.105Z,79.23
2018-11-23T10:05:47.151Z,79.18
2018-11-23T10:08:15.209Z,79.39
2018-11-23T10:10:43.333Z,79.86
2018-11-23T10:13:11.343Z,78.83
2018-11-23T10:15:39.352Z,79.34
2018-11-23T10:18:07.398Z,78.54
2018-11-23T10:20:35.898Z,78.78
2018-11-23T10:23:04.040Z,78.85
2018-11-23T10:25:33.539Z,78.47
2018-11-23T10:28:01.627Z,78.28
2018-11-23T10:30:30.994Z,78.23
2018-11-23T10:33:00.287Z,78.42
2018-11-23T10:35:28.622Z,78.55
2018-11-23T10:37:57.862Z,78.30
2018-11-23T10:40:27.305Z,78.41
2018-11-23T10:42:55.307Z,78.11
2018-11-23T10:45:24.798Z,78.19
2018-11-23T10:47:53.565Z,78.56
2018-11-23T10:50:22.970Z,78.85
2018-11-23T10:52:51.175Z,78.23
2018-11-23T10:55:20.642Z,78.57
2018-11-23T10:57:48.842Z,78.15
2018-11-23T11:00:22.535Z,78.05
2018-11-23T11:02:56.497Z,78.03
2018-11-23T11:05:41.950Z,77.82
2018-11-23T11:08:09.953Z,77.46
2018-11-23T11:10:38.002Z,77.92
2018-11-23T11:13:06.040Z,77.92
2018-11-23T11:15:34.718Z,78.08
2018-11-23T11:18:02.706Z,77.45
2018-11-23T11:20:30.706Z,77.76
2018-11-23T11:22:58.756Z,77.54
2018-11-23T11:25:26.786Z,77.71
2018-11-23T11:27:54.776Z,77.37
2018-11-23T11:30:22.815Z,77.05
2018-11-23T11:32:51.133Z,77.16
2018-11-23T11:35:19.178Z,76.98
2018-11-23T11:37:47.302Z,77.01
2018-11-23T11:40:17.390Z,77.73
2018-11-23T11:42:45.525Z,78.12
2018-11-23T11:45:15.083Z,77.91
2018-11-23T11:47:44.537Z,78.22
2018-11-23T11:50:13.650Z,78.06
2018-11-23T11:52:42.958Z,77.68
2018-11-23T11:55:12.867Z,78.32
2018-11-23T11:57:41.271Z,78.07
2018-11-23T12:00:11.337Z,78.11
2018-11-23T12:02:39.571Z,77.94
2018-11-23T12:05:08.889Z,77.47
2018-11-23T12:07:36.942Z,77.56
2018-11-23T12:10:06.415Z,77.29
2018-11-23T12:12:34.499Z,74.88
2018-11-23T12:15:02.514Z,76.89
2018-11-23T12:17:30.582Z,76.10
2018-11-23T12:19:58.613Z,76.13
2018-11-23T12:22:26.725Z,76.54
2018-11-23T12:24:55.088Z,76.42
2018-11-23T12:27:23.185Z,77.02
2018-11-23T12:29:51.288Z,76.64
2018-11-23T12:32:19.315Z,76.46
2018-11-23T12:34:47.367Z,75.45
2018-11-23T12:37:15.410Z,76.31
2018-11-23T12:39:43.478Z,75.78
2018-11-23T12:42:11.513Z,74.47
2018-11-23T12:44:39.898Z,75.57
2018-11-23T12:47:07.594Z,75.98
2018-11-23T12:49:35.601Z,75.98
2018-11-23T12:52:03.639Z,76.13
2018-11-23T12:54:32.989Z,76.05
2018-11-23T12:57:01.053Z,75.16
2018-11-23T12:59:29.110Z,75.87
2018-11-23T13:01:57.103Z,76.14
2018-11-23T13:04:25.091Z,75.94
2018-11-23T13:06:53.186Z,75.74
2018-11-23T13:09:21.286Z,75.91
2018-11-23T13:11:49.739Z,74.86
2018-11-23T13:14:17.761Z,75.53
2018-11-23T13:16:45.787Z,75.93
2018-11-23T13:19:13.800Z,75.08
2018-11-23T13:21:41.879Z,75.57
2018-11-23T13:24:09.961Z,75.38
2018-11-23T13:26:38.006Z,75.46
2018-11-23T13:29:15.678Z,75.47
2018-11-23T13:31:34.091Z,75.36
2018-11-23T13:34:02.973Z,75.30
2018-11-23T13:36:31.872Z,75.65
2018-11-23T13:38:59.947Z,75.75
2018-11-23T13:41:28.019Z,75.70
2018-11-23T13:43:56.085Z,75.51
2018-11-23T13:46:24.203Z,75.67
2018-11-23T13:48:53.318Z,75.68
2018-11-23T13:51:21.414Z,75.51
2018-11-23T13:53:49.483Z,75.36
2018-11-23T13:56:17.501Z,75.60
2018-11-23T13:58:45.521Z,75.62
2018-11-23T14:01:13.529Z,75.38
2018-11-23T14:03:41.591Z,75.34
2018-11-23T14:06:09.574Z,75.17
2018-11-23T14:08:37.644Z,75.40
2018-11-23T14:11:05.631Z,75.46
2018-11-23T14:13:33.740Z,75.50
2018-11-23T14:16:01.783Z,75.25
2018-11-23T14:18:29.813Z,75.71
2018-11-23T14:20:57.884Z,75.47
2018-11-23T14:23:25.938Z,75.44
2018-11-23T14:25:54.871Z,75.80
2018-11-23T14:28:21.986Z,75.52
2018-11-23T14:30:50.021Z,75.26
2018-11-23T14:33:18.083Z,75.29
2018-11-23T14:35:46.119Z,75.27
2018-11-23T14:38:14.279Z,75.31
2018-11-23T14:40:42.321Z,75.52
2018-11-23T14:43:10.417Z,75.26
2018-11-23T14:45:38.401Z,75.27
2018-11-23T14:48:07.036Z,75.16
2018-11-23T14:50:40.378Z,75.02
2018-11-23T14:53:08.442Z,75.22
2018-11-23T14:55:36.467Z,75.45
2018-11-23T14:58:04.563Z,75.51
2018-11-23T15:00:34.115Z,75.42
2018-11-23T15:03:03.149Z,75.02
2018-11-23T15:05:31.158Z,74.99
2018-11-23T15:07:59.200Z,75.29
2018-11-23T15:10:28.465Z,74.98
2018-11-23T15:12:57.841Z,75.08
2018-11-23T15:15:27.348Z,75.30
2018-11-23T15:17:55.855Z,75.43
2018-11-23T15:20:24.719Z,75.34
2018-11-23T15:22:54.682Z,75.23
2018-11-23T15:25:22.702Z,75.07
2018-11-23T15:27:50.760Z,75.29
2018-11-23T15:30:20.788Z,74.93
2018-11-23T15:32:48.807Z,74.88
2018-11-23T15:35:17.054Z,74.98
2018-11-23T15:37:45.031Z,74.95
2018-11-23T15:40:16.055Z,75.03
2018-11-23T15:42:44.422Z,74.84
2018-11-23T15:45:14.594Z,74.91
2018-11-23T15:47:42.668Z,74.42
2018-11-23T15:50:12.284Z,74.48
2018-11-23T15:52:40.342Z,74.73
2018-11-23T15:55:11.240Z,74.89
2018-11-23T15:57:39.477Z,74.58
2018-11-23T16:00:10.252Z,74.27
2018-11-23T16:02:38.279Z,74.44
2018-11-23T16:05:06.868Z,74.29
2018-11-23T16:07:34.921Z,74.45
2018-11-23T16:10:03.115Z,74.41
2018-11-23T16:12:31.144Z,74.50
2018-11-23T16:14:59.179Z,74.73
2018-11-23T16:17:27.831Z,73.95
2018-11-23T16:19:55.934Z,74.44
2018-11-23T16:22:24.943Z,74.64
2018-11-23T16:24:53.135Z,74.55
2018-11-23T16:27:21.237Z,74.42
2018-11-23T16:29:49.287Z,74.58
2018-11-23T16:32:17.542Z,74.37
2018-11-23T16:34:45.618Z,73.97
2018-11-23T16:37:13.673Z,74.16
2018-11-23T16:39:41.724Z,74.16
2018-11-23T16:42:09.770Z,74.42
2018-11-23T16:44:39.084Z,74.41
2018-11-23T16:47:06.686Z,74.43
2018-11-23T16:49:34.818Z,74.66
2018-11-23T16:52:02.922Z,74.19
2018-11-23T16:54:30.944Z,74.44
2018-11-23T16:56:59.698Z,74.26
2018-11-23T16:59:27.811Z,74.28
2018-11-23T17:01:55.837Z,74.49
2018-11-23T17:04:23.955Z,74.37
2018-11-23T17:06:52.035Z,74.24
2018-11-23T17:09:20.660Z,74.52
2018-11-23T17:11:48.737Z,74.50
2018-11-23T17:14:16.775Z,74.55
2018-11-23T17:16:47.376Z,74.41
2018-11-23T17:19:15.429Z,74.43
2018-11-23T17:21:43.458Z,74.05
2018-11-23T17:24:11.482Z,74.62
2018-11-23T17:26:39.807Z,74.37
2018-11-23T17:29:07.951Z,74.47
2018-11-23T17:31:36.549Z,74.67
2018-11-23T17:34:04.622Z,74.87
2018-11-23T17:36:32.659Z,74.18
2018-11-23T17:39:00.753Z,74.42
2018-11-23T17:41:29.137Z,74.69
2018-11-23T17:43:58.191Z,74.67
2018-11-23T17:46:26.219Z,74.52
2018-11-23T17:48:54.305Z,74.14
2018-11-23T17:51:22.311Z,74.19
2018-11-23T17:53:50.342Z,74.38
2018-11-23T17:56:18.435Z,74.07
2018-11-23T17:58:46.475Z,74.41
2018-11-23T18:01:14.506Z,74.76
2018-11-23T18:03:42.550Z,74.51
2018-11-23T18:06:11.541Z,74.61
2018-11-23T18:08:39.626Z,74.43
2018-11-23T18:11:07.685Z,74.74
2018-11-23T18:16:14.177Z,74.87
2018-11-23T18:18:42.764Z,74.24
2018-11-23T18:21:11.529Z,74.39
2018-11-23T18:23:39.642Z,74.10
2018-11-23T18:26:08.283Z,74.45
2018-11-23T18:28:36.398Z,74.10
2018-11-23T18:31:04.430Z,74.25
2018-11-23T18:33:32.451Z,74.09
2018-11-23T18:36:00.466Z,73.82
2018-11-23T18:38:32.208Z,74.62
2018-11-23T18:41:00.292Z,74.40
2018-11-23T18:43:28.396Z,74.06
2018-11-23T18:45:56.440Z,73.98
2018-11-23T18:48:24.534Z,74.04
2018-11-23T18:50:52.583Z,73.97
2018-11-23T18:53:20.581Z,73.94
2018-11-23T18:55:49.647Z,74.26
2018-11-23T18:58:17.654Z,74.01
2018-11-23T19:00:46.183Z,74.09
2018-11-23T19:03:14.221Z,74.07
2018-11-23T19:05:43.452Z,73.95
2018-11-23T19:08:11.491Z,74.35
2018-11-23T19:10:39.645Z,74.15
2018-11-23T19:13:07.753Z,73.71
2018-11-23T19:15:35.829Z,74.00
2018-11-23T19:18:03.947Z,74.49
2018-11-23T19:20:32.139Z,74.77
2018-11-23T19:23:00.180Z,74.24
2018-11-23T19:25:29.221Z,73.97
2018-11-23T19:28:02.471Z,74.74
2018-11-23T19:30:30.494Z,74.23
2018-11-23T19:32:58.538Z,74.64
2018-11-23T19:35:27.185Z,74.88
2018-11-23T19:37:56.200Z,74.09
2018-11-23T19:40:24.540Z,74.39
2018-11-23T19:42:52.572Z,74.66
2018-11-23T19:45:21.791Z,74.48
2018-11-23T19:47:49.877Z,74.47
2018-11-23T19:50:19.008Z,74.74
2018-11-23T19:52:47.425Z,74.57
2018-11-23T19:55:16.131Z,74.46
2018-11-23T19:57:44.255Z,74.00
2018-11-23T20:00:17.341Z,73.93
2018-11-23T20:02:45.353Z,74.45
2018-11-23T20:05:13.425Z,74.10
2018-11-23T20:07:41.394Z,74.25
2018-11-23T20:10:10.455Z,74.47
2018-11-23T20:12:38.628Z,74.18
2018-11-23T20:15:08.223Z,74.18
2018-11-23T20:17:41.240Z,74.21
2018-11-23T20:20:05.095Z,74.22
2018-11-23T20:22:33.129Z,74.12
2018-11-23T20:25:01.218Z,74.52
2018-11-23T20:27:29.233Z,73.99
2018-11-23T20:29:57.282Z,74.41
2018-11-23T20:32:26.707Z,74.27
2018-11-23T20:34:55.333Z,74.42
2018-11-23T20:37:23.437Z,74.72
2018-11-23T20:39:51.486Z,74.64
2018-11-23T20:42:19.697Z,74.51
2018-11-23T20:44:47.989Z,75.61
2018-11-23T20:47:16.002Z,74.17
2018-11-23T20:49:45.859Z,74.26
2018-11-23T20:52:12.817Z,75.67
2018-11-23T20:54:40.882Z,73.99
2018-11-23T20:57:08.904Z,73.96
2018-11-23T20:59:38.950Z,73.99
2018-11-23T21:02:04.990Z,74.47
2018-11-23T21:04:35.520Z,74.18
2018-11-23T21:07:03.619Z,74.65
2018-11-23T21:09:31.693Z,74.27
2018-11-23T21:11:59.743Z,74.58
2018-11-23T21:14:27.798Z,74.71
2018-11-23T21:16:55.832Z,74.52
2018-11-23T21:19:23.892Z,75.18
2018-11-23T21:21:51.984Z,74.77
2018-11-23T21:24:20.019Z,74.94
2018-11-23T21:26:48.906Z,74.73
2018-11-23T21:29:16.958Z,74.69
2018-11-23T21:31:45.003Z,74.14
2018-11-23T21:34:13.035Z,74.33
2018-11-23T21:36:41.056Z,75.10
2018-11-23T21:39:13.846Z,74.81
2018-11-23T21:41:37.963Z,75.15
2018-11-23T21:44:05.988Z,75.04
2018-11-23T21:46:34.071Z,75.00
2018-11-23T21:49:02.138Z,74.33
2018-11-23T21:51:30.188Z,74.40
2018-11-23T21:53:58.187Z,75.02
2018-11-23T21:56:26.900Z,74.53
2018-11-23T21:58:54.971Z,75.22
2018-11-23T22:01:23.017Z,74.78
2018-11-23T22:03:51.064Z,75.08
2018-11-23T22:06:19.127Z,74.84
2018-11-23T22:08:48.154Z,74.98
2018-11-23T22:11:17.088Z,74.89
2018-11-23T22:13:45.118Z,74.87
2018-11-23T22:16:13.133Z,74.44
2018-11-23T22:18:41.149Z,74.88
2018-11-23T22:21:09.146Z,74.99
2018-11-23T22:23:37.173Z,74.86
2018-11-23T22:26:05.240Z,74.59
2018-11-23T22:28:33.320Z,74.84
2018-11-23T22:31:01.354Z,74.56
2018-11-23T22:33:29.423Z,74.94
2018-11-23T22:35:57.494Z,74.58
2018-11-23T22:38:25.550Z,75.31
2018-11-23T22:40:54.694Z,75.24
2018-11-23T22:43:22.686Z,74.32
2018-11-23T22:45:50.702Z,74.71
2018-11-23T22:48:18.774Z,75.66
2018-11-23T22:50:46.825Z,75.21
2018-11-23T22:53:14.847Z,74.82
2018-11-23T22:55:42.912Z,74.95
2018-11-23T22:58:10.965Z,74.97
2018-11-23T23:00:40.936Z,74.90
2018-11-23T23:03:09.045Z,74.63
2018-11-23T23:05:37.098Z,74.33
2018-11-23T23:08:05.527Z,75.51
2018-11-23T23:10:33.561Z,75.30
2018-11-23T23:13:01.620Z,74.68
2018-11-23T23:15:29.653Z,74.65
2018-11-23T23:17:58.524Z,74.65
2018-11-23T23:20:26.582Z,76.07
2018-11-23T23:22:54.802Z,75.33
2018-11-23T23:25:22.938Z,75.11
2018-11-23T23:27:50.947Z,75.59
2018-11-23T23:30:19.032Z,75.77
2018-11-23T23:32:47.474Z,74.76
2018-11-23T23:35:15.894Z,75.15
2018-11-23T23:37:43.950Z,75.37
2018-11-23T23:40:15.019Z,77.08
2018-11-23T23:42:43.148Z,74.96
2018-11-23T23:45:11.600Z,75.55
2018-11-23T23:47:39.662Z,75.19
2018-11-23T23:50:16.900Z,75.38
2018-11-23T23:52:44.945Z,76.07
2018-11-23T23:55:12.972Z,76.14
2018-11-23T23:57:42.496Z,76.09
